sensor_id;sensor_type;location;lat;lon;timestamp;temperature;humidity
47618;DHT22;33336;36.728;-4.414;2022-09-09T00:01:46;27.50;75.10
47618;DHT22;33336;36.728;-4.414;2022-09-09T00:07:00;26.90;76.10
47618;DHT22;33336;36.728;-4.414;2022-09-09T00:12:11;27.30;75.70
47618;DHT22;33336;36.728;-4.414;2022-09-09T00:17:26;27.60;74.70
47618;DHT22;33336;36.728;-4.414;2022-09-09T00:22:36;27.80;73.80
47618;DHT22;33336;36.728;-4.414;2022-09-09T00:27:44;27.60;75.90
47618;DHT22;33336;36.728;-4.414;2022-09-09T00:32:51;27.10;78.40
47618;DHT22;33336;36.728;-4.414;2022-09-09T00:38:03;27.00;77.80
47618;DHT22;33336;36.728;-4.414;2022-09-09T00:43:21;26.60;77.70
47618;DHT22;33336;36.728;-4.414;2022-09-09T00:48:36;27.10;76.70
47618;DHT22;33336;36.728;-4.414;2022-09-09T00:54:05;27.10;76.30
47618;DHT22;33336;36.728;-4.414;2022-09-09T00:59:22;27.30;74.50
47618;DHT22;33336;36.728;-4.414;2022-09-09T01:04:33;27.50;73.60
47618;DHT22;33336;36.728;-4.414;2022-09-09T01:09:51;27.00;74.30
47618;DHT22;33336;36.728;-4.414;2022-09-09T01:15:03;27.10;73.60
47618;DHT22;33336;36.728;-4.414;2022-09-09T01:20:15;26.80;75.30
47618;DHT22;33336;36.728;-4.414;2022-09-09T01:25:27;26.50;74.70
47618;DHT22;33336;36.728;-4.414;2022-09-09T01:30:33;26.10;75.30
47618;DHT22;33336;36.728;-4.414;2022-09-09T01:35:42;26.40;75.40
47618;DHT22;33336;36.728;-4.414;2022-09-09T01:40:46;27.00;75.00
47618;DHT22;33336;36.728;-4.414;2022-09-09T01:45:54;27.00;75.10
47618;DHT22;33336;36.728;-4.414;2022-09-09T01:50:59;27.20;75.10
47618;DHT22;33336;36.728;-4.414;2022-09-09T01:56:08;26.40;77.00
47618;DHT22;33336;36.728;-4.414;2022-09-09T02:01:26;25.60;79.30
47618;DHT22;33336;36.728;-4.414;2022-09-09T02:06:35;26.60;77.70
47618;DHT22;33336;36.728;-4.414;2022-09-09T02:11:39;26.70;76.30
47618;DHT22;33336;36.728;-4.414;2022-09-09T02:16:50;27.10;75.50
47618;DHT22;33336;36.728;-4.414;2022-09-09T02:21:56;27.30;75.10
47618;DHT22;33336;36.728;-4.414;2022-09-09T02:27:02;27.40;75.10
47618;DHT22;33336;36.728;-4.414;2022-09-09T02:32:12;27.40;75.40
47618;DHT22;33336;36.728;-4.414;2022-09-09T02:37:18;27.50;75.30
47618;DHT22;33336;36.728;-4.414;2022-09-09T02:42:23;26.50;76.80
47618;DHT22;33336;36.728;-4.414;2022-09-09T02:47:31;26.90;76.80
47618;DHT22;33336;36.728;-4.414;2022-09-09T02:52:45;27.10;75.40
47618;DHT22;33336;36.728;-4.414;2022-09-09T02:57:50;27.40;75.10
47618;DHT22;33336;36.728;-4.414;2022-09-09T03:02:55;27.40;74.30
47618;DHT22;33336;36.728;-4.414;2022-09-09T03:07:58;27.50;74.50
47618;DHT22;33336;36.728;-4.414;2022-09-09T03:13:01;27.20;75.60
47618;DHT22;33336;36.728;-4.414;2022-09-09T03:18:06;27.10;74.80
47618;DHT22;33336;36.728;-4.414;2022-09-09T03:23:10;27.20;74.10
47618;DHT22;33336;36.728;-4.414;2022-09-09T03:28:15;27.50;73.80
47618;DHT22;33336;36.728;-4.414;2022-09-09T03:33:19;27.10;73.90
47618;DHT22;33336;36.728;-4.414;2022-09-09T03:38:22;26.90;74.30
47618;DHT22;33336;36.728;-4.414;2022-09-09T03:43:26;26.70;74.50
47618;DHT22;33336;36.728;-4.414;2022-09-09T03:48:31;26.80;74.00
47618;DHT22;33336;36.728;-4.414;2022-09-09T03:53:34;26.60;74.50
47618;DHT22;33336;36.728;-4.414;2022-09-09T03:58:37;27.10;74.20
47618;DHT22;33336;36.728;-4.414;2022-09-09T04:03:42;27.20;73.30
47618;DHT22;33336;36.728;-4.414;2022-09-09T04:08:46;27.20;73.30
47618;DHT22;33336;36.728;-4.414;2022-09-09T04:13:50;27.60;72.70
47618;DHT22;33336;36.728;-4.414;2022-09-09T04:18:54;27.70;72.40
47618;DHT22;33336;36.728;-4.414;2022-09-09T04:23:58;26.70;73.80
47618;DHT22;33336;36.728;-4.414;2022-09-09T04:29:01;27.30;73.30
47618;DHT22;33336;36.728;-4.414;2022-09-09T04:34:05;27.00;73.00
47618;DHT22;33336;36.728;-4.414;2022-09-09T04:39:08;27.40;72.90
47618;DHT22;33336;36.728;-4.414;2022-09-09T04:44:11;27.30;72.80
47618;DHT22;33336;36.728;-4.414;2022-09-09T04:49:15;27.40;73.20
47618;DHT22;33336;36.728;-4.414;2022-09-09T04:54:19;27.20;73.10
47618;DHT22;33336;36.728;-4.414;2022-09-09T04:59:21;26.80;74.10
47618;DHT22;33336;36.728;-4.414;2022-09-09T05:04:26;27.20;74.20
47618;DHT22;33336;36.728;-4.414;2022-09-09T05:09:30;27.20;73.90
47618;DHT22;33336;36.728;-4.414;2022-09-09T05:14:33;26.70;74.80
47618;DHT22;33336;36.728;-4.414;2022-09-09T05:19:39;25.30;77.00
47618;DHT22;33336;36.728;-4.414;2022-09-09T05:24:42;25.60;78.30
47618;DHT22;33336;36.728;-4.414;2022-09-09T05:29:45;26.20;76.40
47618;DHT22;33336;36.728;-4.414;2022-09-09T05:34:50;25.80;78.70
47618;DHT22;33336;36.728;-4.414;2022-09-09T05:39:53;26.10;80.60
47618;DHT22;33336;36.728;-4.414;2022-09-09T05:44:58;26.40;80.30
47618;DHT22;33336;36.728;-4.414;2022-09-09T05:50:04;26.10;81.00
47618;DHT22;33336;36.728;-4.414;2022-09-09T05:55:08;26.00;81.30
47618;DHT22;33336;36.728;-4.414;2022-09-09T06:00:11;26.30;80.70
47618;DHT22;33336;36.728;-4.414;2022-09-09T06:05:18;26.50;80.10
47618;DHT22;33336;36.728;-4.414;2022-09-09T06:10:22;25.50;81.80
47618;DHT22;33336;36.728;-4.414;2022-09-09T06:15:26;25.70;82.20
47618;DHT22;33336;36.728;-4.414;2022-09-09T06:20:33;25.70;82.70
47618;DHT22;33336;36.728;-4.414;2022-09-09T06:25:37;25.60;83.50
47618;DHT22;33336;36.728;-4.414;2022-09-09T06:30:41;25.60;84.30
47618;DHT22;33336;36.728;-4.414;2022-09-09T06:35:52;26.00;83.40
47618;DHT22;33336;36.728;-4.414;2022-09-09T06:40:57;26.40;82.20
47618;DHT22;33336;36.728;-4.414;2022-09-09T06:46:02;25.90;83.80
47618;DHT22;33336;36.728;-4.414;2022-09-09T06:51:08;26.20;82.80
47618;DHT22;33336;36.728;-4.414;2022-09-09T06:56:19;26.10;83.60
47618;DHT22;33336;36.728;-4.414;2022-09-09T07:01:26;26.50;83.30
47618;DHT22;33336;36.728;-4.414;2022-09-09T07:06:32;26.40;83.40
47618;DHT22;33336;36.728;-4.414;2022-09-09T07:11:38;26.40;83.60
47618;DHT22;33336;36.728;-4.414;2022-09-09T07:16:43;26.60;82.70
47618;DHT22;33336;36.728;-4.414;2022-09-09T07:21:49;26.40;83.40
47618;DHT22;33336;36.728;-4.414;2022-09-09T07:26:53;26.80;82.10
47618;DHT22;33336;36.728;-4.414;2022-09-09T07:31:55;26.80;81.10
47618;DHT22;33336;36.728;-4.414;2022-09-09T07:37:01;27.10;79.40
47618;DHT22;33336;36.728;-4.414;2022-09-09T07:42:04;26.30;81.50
47618;DHT22;33336;36.728;-4.414;2022-09-09T07:47:09;26.70;81.20
47618;DHT22;33336;36.728;-4.414;2022-09-09T07:52:13;26.30;80.50
47618;DHT22;33336;36.728;-4.414;2022-09-09T07:57:16;26.50;80.70
47618;DHT22;33336;36.728;-4.414;2022-09-09T08:02:19;26.30;81.00
47618;DHT22;33336;36.728;-4.414;2022-09-09T08:07:23;26.50;81.00
47618;DHT22;33336;36.728;-4.414;2022-09-09T08:12:26;26.10;83.90
47618;DHT22;33336;36.728;-4.414;2022-09-09T08:17:29;26.50;83.40
47618;DHT22;33336;36.728;-4.414;2022-09-09T08:22:33;26.50;83.50
47618;DHT22;33336;36.728;-4.414;2022-09-09T08:27:39;27.40;81.80
47618;DHT22;33336;36.728;-4.414;2022-09-09T08:32:41;27.10;81.90
47618;DHT22;33336;36.728;-4.414;2022-09-09T08:37:46;27.10;81.30
47618;DHT22;33336;36.728;-4.414;2022-09-09T08:42:52;27.60;80.60
47618;DHT22;33336;36.728;-4.414;2022-09-09T08:48:12;27.90;79.70
47618;DHT22;33336;36.728;-4.414;2022-09-09T08:53:20;27.10;82.20
47618;DHT22;33336;36.728;-4.414;2022-09-09T08:58:27;26.90;83.90
47618;DHT22;33336;36.728;-4.414;2022-09-09T09:03:37;25.80;87.30
47618;DHT22;33336;36.728;-4.414;2022-09-09T09:08:51;25.50;89.40
47618;DHT22;33336;36.728;-4.414;2022-09-09T09:14:01;26.00;89.10
47618;DHT22;33336;36.728;-4.414;2022-09-09T09:19:05;26.40;88.20
47618;DHT22;33336;36.728;-4.414;2022-09-09T09:24:19;27.10;86.70
47618;DHT22;33336;36.728;-4.414;2022-09-09T09:29:24;27.90;84.80
47618;DHT22;33336;36.728;-4.414;2022-09-09T09:34:28;27.80;84.80
47618;DHT22;33336;36.728;-4.414;2022-09-09T09:39:33;27.90;84.60
47618;DHT22;33336;36.728;-4.414;2022-09-09T09:44:40;27.40;85.60
47618;DHT22;33336;36.728;-4.414;2022-09-09T09:49:52;27.40;83.50
47618;DHT22;33336;36.728;-4.414;2022-09-09T09:54:58;27.90;83.30
47618;DHT22;33336;36.728;-4.414;2022-09-09T10:00:11;27.10;85.50
47618;DHT22;33336;36.728;-4.414;2022-09-09T10:05:16;26.80;86.50
47618;DHT22;33336;36.728;-4.414;2022-09-09T10:10:26;26.90;87.00
47618;DHT22;33336;36.728;-4.414;2022-09-09T10:15:36;26.40;87.70
47618;DHT22;33336;36.728;-4.414;2022-09-09T10:20:49;26.60;86.70
47618;DHT22;33336;36.728;-4.414;2022-09-09T10:26:06;27.70;83.30
47618;DHT22;33336;36.728;-4.414;2022-09-09T10:31:17;28.20;80.40
47618;DHT22;33336;36.728;-4.414;2022-09-09T10:36:24;28.90;78.50
47618;DHT22;33336;36.728;-4.414;2022-09-09T10:41:45;29.20;75.20
47618;DHT22;33336;36.728;-4.414;2022-09-09T10:47:02;29.40;75.40
47618;DHT22;33336;36.728;-4.414;2022-09-09T10:52:13;29.90;75.30
47618;DHT22;33336;36.728;-4.414;2022-09-09T10:57:25;30.10;74.40
47618;DHT22;33336;36.728;-4.414;2022-09-09T11:02:31;30.60;74.40
47618;DHT22;33336;36.728;-4.414;2022-09-09T11:07:37;30.90;72.70
47618;DHT22;33336;36.728;-4.414;2022-09-09T11:12:45;30.80;71.90
47618;DHT22;33336;36.728;-4.414;2022-09-09T11:17:53;30.60;71.60
47618;DHT22;33336;36.728;-4.414;2022-09-09T11:23:02;30.50;71.60
47618;DHT22;33336;36.728;-4.414;2022-09-09T11:28:22;30.90;71.10
47618;DHT22;33336;36.728;-4.414;2022-09-09T11:33:42;31.40;69.90
47618;DHT22;33336;36.728;-4.414;2022-09-09T11:38:51;31.60;69.20
47618;DHT22;33336;36.728;-4.414;2022-09-09T11:43:57;31.60;69.10
47618;DHT22;33336;36.728;-4.414;2022-09-09T11:49:01;31.80;68.50
47618;DHT22;33336;36.728;-4.414;2022-09-09T11:54:27;31.30;70.50
47618;DHT22;33336;36.728;-4.414;2022-09-09T11:59:33;31.80;72.30
47618;DHT22;33336;36.728;-4.414;2022-09-09T12:04:38;31.50;73.20
47618;DHT22;33336;36.728;-4.414;2022-09-09T12:09:47;30.90;76.00
47618;DHT22;33336;36.728;-4.414;2022-09-09T12:20:23;31.80;75.90
47618;DHT22;33336;36.728;-4.414;2022-09-09T12:25:46;32.80;73.70
47618;DHT22;33336;36.728;-4.414;2022-09-09T12:30:58;32.70;73.20
47618;DHT22;33336;36.728;-4.414;2022-09-09T12:36:05;32.80;72.80
47618;DHT22;33336;36.728;-4.414;2022-09-09T12:41:18;32.00;75.60
47618;DHT22;33336;36.728;-4.414;2022-09-09T12:46:29;31.00;78.10
47618;DHT22;33336;36.728;-4.414;2022-09-09T12:51:34;29.90;81.90
47618;DHT22;33336;36.728;-4.414;2022-09-09T12:56:38;30.80;80.30
47618;DHT22;33336;36.728;-4.414;2022-09-09T13:01:43;32.00;76.80
47618;DHT22;33336;36.728;-4.414;2022-09-09T13:06:45;30.90;77.50
47618;DHT22;33336;36.728;-4.414;2022-09-09T13:11:50;31.30;78.90
47618;DHT22;33336;36.728;-4.414;2022-09-09T13:16:59;30.70;79.30
47618;DHT22;33336;36.728;-4.414;2022-09-09T13:22:12;30.80;79.20
47618;DHT22;33336;36.728;-4.414;2022-09-09T13:27:26;30.70;79.50
47618;DHT22;33336;36.728;-4.414;2022-09-09T13:32:32;31.30;78.70
47618;DHT22;33336;36.728;-4.414;2022-09-09T13:37:37;30.90;79.00
47618;DHT22;33336;36.728;-4.414;2022-09-09T13:42:41;31.50;78.50
47618;DHT22;33336;36.728;-4.414;2022-09-09T13:47:46;31.50;78.20
47618;DHT22;33336;36.728;-4.414;2022-09-09T13:52:54;30.70;79.90
47618;DHT22;33336;36.728;-4.414;2022-09-09T13:58:01;32.90;76.80
47618;DHT22;33336;36.728;-4.414;2022-09-09T14:03:05;33.00;76.30
47618;DHT22;33336;36.728;-4.414;2022-09-09T14:08:16;34.00;74.30
47618;DHT22;33336;36.728;-4.414;2022-09-09T14:13:22;33.20;75.70
47618;DHT22;33336;36.728;-4.414;2022-09-09T14:18:28;34.20;73.10
47618;DHT22;33336;36.728;-4.414;2022-09-09T14:23:31;34.80;73.60
47618;DHT22;33336;36.728;-4.414;2022-09-09T14:28:36;33.10;76.40
47618;DHT22;33336;36.728;-4.414;2022-09-09T14:33:40;34.30;75.30
47618;DHT22;33336;36.728;-4.414;2022-09-09T14:38:43;34.20;74.40
47618;DHT22;33336;36.728;-4.414;2022-09-09T14:43:46;33.90;73.70
47618;DHT22;33336;36.728;-4.414;2022-09-09T14:48:51;34.20;76.70
47618;DHT22;33336;36.728;-4.414;2022-09-09T14:53:55;34.90;75.10
47618;DHT22;33336;36.728;-4.414;2022-09-09T14:58:59;34.40;76.10
47618;DHT22;33336;36.728;-4.414;2022-09-09T15:04:06;35.30;75.00
47618;DHT22;33336;36.728;-4.414;2022-09-09T15:09:09;33.70;75.80
47618;DHT22;33336;36.728;-4.414;2022-09-09T15:14:12;33.50;75.70
47618;DHT22;33336;36.728;-4.414;2022-09-09T15:19:17;33.30;77.00
47618;DHT22;33336;36.728;-4.414;2022-09-09T15:24:19;34.90;76.20
47618;DHT22;33336;36.728;-4.414;2022-09-09T15:29:22;37.40;72.70
47618;DHT22;33336;36.728;-4.414;2022-09-09T15:34:28;36.30;70.90
47618;DHT22;33336;36.728;-4.414;2022-09-09T15:39:31;36.60;71.00
47618;DHT22;33336;36.728;-4.414;2022-09-09T15:44:39;38.80;68.30
47618;DHT22;33336;36.728;-4.414;2022-09-09T15:49:44;40.00;62.60
47618;DHT22;33336;36.728;-4.414;2022-09-09T15:54:47;42.40;59.10
47618;DHT22;33336;36.728;-4.414;2022-09-09T15:59:50;42.70;57.70
47618;DHT22;33336;36.728;-4.414;2022-09-09T16:04:55;45.10;56.40
47618;DHT22;33336;36.728;-4.414;2022-09-09T16:09:58;46.20;56.00
47618;DHT22;33336;36.728;-4.414;2022-09-09T16:15:01;47.50;52.30
47618;DHT22;33336;36.728;-4.414;2022-09-09T16:20:05;47.40;52.30
47618;DHT22;33336;36.728;-4.414;2022-09-09T16:25:09;45.00;54.10
47618;DHT22;33336;36.728;-4.414;2022-09-09T16:30:12;45.50;54.40
47618;DHT22;33336;36.728;-4.414;2022-09-09T16:35:17;43.40;54.30
47618;DHT22;33336;36.728;-4.414;2022-09-09T16:40:22;45.60;54.50
47618;DHT22;33336;36.728;-4.414;2022-09-09T16:45:25;47.00;54.60
47618;DHT22;33336;36.728;-4.414;2022-09-09T16:50:30;45.90;56.00
47618;DHT22;33336;36.728;-4.414;2022-09-09T16:55:38;45.00;57.50
47618;DHT22;33336;36.728;-4.414;2022-09-09T17:00:41;46.50;56.50
47618;DHT22;33336;36.728;-4.414;2022-09-09T17:05:46;47.00;56.30
47618;DHT22;33336;36.728;-4.414;2022-09-09T17:10:49;45.90;57.90
47618;DHT22;33336;36.728;-4.414;2022-09-09T17:15:52;43.50;58.10
47618;DHT22;33336;36.728;-4.414;2022-09-09T17:21:03;46.00;57.50
47618;DHT22;33336;36.728;-4.414;2022-09-09T17:26:12;44.30;56.00
47618;DHT22;33336;36.728;-4.414;2022-09-09T17:31:16;41.60;58.40
47618;DHT22;33336;36.728;-4.414;2022-09-09T17:36:23;43.00;56.90
47618;DHT22;33336;36.728;-4.414;2022-09-09T17:41:28;40.40;61.10
47618;DHT22;33336;36.728;-4.414;2022-09-09T17:46:34;39.20;63.40
47618;DHT22;33336;36.728;-4.414;2022-09-09T17:51:39;40.90;62.90
47618;DHT22;33336;36.728;-4.414;2022-09-09T17:56:45;42.30;60.40
47618;DHT22;33336;36.728;-4.414;2022-09-09T18:01:48;38.30;63.90
47618;DHT22;33336;36.728;-4.414;2022-09-09T18:06:53;37.30;66.20
47618;DHT22;33336;36.728;-4.414;2022-09-09T18:12:00;35.10;68.60
47618;DHT22;33336;36.728;-4.414;2022-09-09T18:17:03;38.00;66.70
47618;DHT22;33336;36.728;-4.414;2022-09-09T18:22:08;38.70;65.40
47618;DHT22;33336;36.728;-4.414;2022-09-09T18:27:10;37.60;66.40
47618;DHT22;33336;36.728;-4.414;2022-09-09T18:32:13;37.30;65.80
47618;DHT22;33336;36.728;-4.414;2022-09-09T18:37:19;35.10;68.80
47618;DHT22;33336;36.728;-4.414;2022-09-09T18:42:21;34.80;69.50
47618;DHT22;33336;36.728;-4.414;2022-09-09T18:47:24;34.80;69.60
47618;DHT22;33336;36.728;-4.414;2022-09-09T18:52:29;34.60;70.60
47618;DHT22;33336;36.728;-4.414;2022-09-09T18:57:31;30.90;78.80
47618;DHT22;33336;36.728;-4.414;2022-09-09T19:02:34;29.40;83.40
47618;DHT22;33336;36.728;-4.414;2022-09-09T19:07:39;29.30;85.60
47618;DHT22;33336;36.728;-4.414;2022-09-09T19:12:41;30.90;81.40
47618;DHT22;33336;36.728;-4.414;2022-09-09T19:17:44;31.60;79.30
47618;DHT22;33336;36.728;-4.414;2022-09-09T19:22:49;31.90;78.80
47618;DHT22;33336;36.728;-4.414;2022-09-09T19:27:52;30.30;81.60
47618;DHT22;33336;36.728;-4.414;2022-09-09T19:32:55;30.50;81.50
47618;DHT22;33336;36.728;-4.414;2022-09-09T19:38:01;30.10;82.60
47618;DHT22;33336;36.728;-4.414;2022-09-09T19:43:04;30.50;82.10
47618;DHT22;33336;36.728;-4.414;2022-09-09T19:48:07;30.10;82.70
47618;DHT22;33336;36.728;-4.414;2022-09-09T19:53:12;30.20;81.30
47618;DHT22;33336;36.728;-4.414;2022-09-09T19:58:15;28.90;84.50
47618;DHT22;33336;36.728;-4.414;2022-09-09T20:03:18;30.10;82.60
47618;DHT22;33336;36.728;-4.414;2022-09-09T20:08:23;30.30;82.50
47618;DHT22;33336;36.728;-4.414;2022-09-09T20:13:28;28.90;83.70
47618;DHT22;33336;36.728;-4.414;2022-09-09T20:18:32;29.30;83.40
47618;DHT22;33336;36.728;-4.414;2022-09-09T20:23:37;29.30;82.80
47618;DHT22;33336;36.728;-4.414;2022-09-09T20:28:41;29.20;83.60
47618;DHT22;33336;36.728;-4.414;2022-09-09T20:33:44;29.20;83.80
47618;DHT22;33336;36.728;-4.414;2022-09-09T20:38:50;29.40;83.90
47618;DHT22;33336;36.728;-4.414;2022-09-09T20:43:56;28.40;85.40
47618;DHT22;33336;36.728;-4.414;2022-09-09T20:48:59;29.30;84.10
47618;DHT22;33336;36.728;-4.414;2022-09-09T20:54:05;29.60;83.20
47618;DHT22;33336;36.728;-4.414;2022-09-09T20:59:11;29.50;82.70
47618;DHT22;33336;36.728;-4.414;2022-09-09T21:04:15;29.40;83.10
47618;DHT22;33336;36.728;-4.414;2022-09-09T21:09:21;29.50;82.50
47618;DHT22;33336;36.728;-4.414;2022-09-09T21:14:24;29.50;81.70
47618;DHT22;33336;36.728;-4.414;2022-09-09T21:19:28;29.60;80.60
47618;DHT22;33336;36.728;-4.414;2022-09-09T21:24:33;29.10;81.40
47618;DHT22;33336;36.728;-4.414;2022-09-09T21:29:36;29.50;80.30
47618;DHT22;33336;36.728;-4.414;2022-09-09T21:34:39;29.40;80.30
47618;DHT22;33336;36.728;-4.414;2022-09-09T21:39:45;28.60;81.10
47618;DHT22;33336;36.728;-4.414;2022-09-09T21:44:48;29.20;80.10
47618;DHT22;33336;36.728;-4.414;2022-09-09T21:49:51;29.30;79.80
47618;DHT22;33336;36.728;-4.414;2022-09-09T21:54:55;29.40;79.20
47618;DHT22;33336;36.728;-4.414;2022-09-09T21:59:59;28.80;79.40
47618;DHT22;33336;36.728;-4.414;2022-09-09T22:05:02;29.10;79.80
47618;DHT22;33336;36.728;-4.414;2022-09-09T22:10:09;28.30;80.90
47618;DHT22;33336;36.728;-4.414;2022-09-09T22:15:13;27.80;82.20
47618;DHT22;33336;36.728;-4.414;2022-09-09T22:20:16;27.40;83.40
47618;DHT22;33336;36.728;-4.414;2022-09-09T22:25:21;27.60;82.60
47618;DHT22;33336;36.728;-4.414;2022-09-09T22:30:23;27.30;82.70
47618;DHT22;33336;36.728;-4.414;2022-09-09T22:35:26;27.80;82.00
47618;DHT22;33336;36.728;-4.414;2022-09-09T22:40:34;27.70;82.30
47618;DHT22;33336;36.728;-4.414;2022-09-09T22:45:38;27.10;81.60
47618;DHT22;33336;36.728;-4.414;2022-09-09T22:50:42;26.60;83.70
47618;DHT22;33336;36.728;-4.414;2022-09-09T22:55:56;26.90;83.90
47618;DHT22;33336;36.728;-4.414;2022-09-09T23:00:59;27.00;83.90
47618;DHT22;33336;36.728;-4.414;2022-09-09T23:06:02;27.20;84.80
47618;DHT22;33336;36.728;-4.414;2022-09-09T23:11:09;27.60;85.40
47618;DHT22;33336;36.728;-4.414;2022-09-09T23:16:16;27.10;84.30
47618;DHT22;33336;36.728;-4.414;2022-09-09T23:21:19;26.90;86.20
47618;DHT22;33336;36.728;-4.414;2022-09-09T23:26:25;27.40;84.10
47618;DHT22;33336;36.728;-4.414;2022-09-09T23:31:31;27.40;84.40
47618;DHT22;33336;36.728;-4.414;2022-09-09T23:36:39;27.00;85.50
47618;DHT22;33336;36.728;-4.414;2022-09-09T23:41:44;27.50;85.00
47618;DHT22;33336;36.728;-4.414;2022-09-09T23:46:47;27.30;85.10
47618;DHT22;33336;36.728;-4.414;2022-09-09T23:51:50;27.50;84.10
47618;DHT22;33336;36.728;-4.414;2022-09-09T23:56:55;26.90;85.90
